sensor_id;sensor_type;location;lat;lon;timestamp;pressure;altitude;pressure_sealevel;temperature;humidity
49947;BME280;35839;48.662;13.300;2022-08-01T05:01:37;97252.72;;;17.60;100.00
49947;BME280;35839;48.662;13.300;2022-08-01T05:04:03;97266.13;;;17.59;100.00
49947;BME280;35839;48.662;13.300;2022-08-01T05:06:28;97273.28;;;17.65;100.00
49947;BME280;35839;48.662;13.300;2022-08-01T05:08:53;97279.41;;;17.65;100.00
49947;BME280;35839;48.662;13.300;2022-08-01T05:11:19;97278.72;;;17.50;100.00
49947;BME280;35839;48.662;13.300;2022-08-01T05:13:44;97269.47;;;17.33;100.00
49947;BME280;35839;48.662;13.300;2022-08-01T05:16:10;97280.88;;;17.33;100.00
49947;BME280;35839;48.662;13.300;2022-08-01T05:18:35;97277.88;;;17.43;100.00
49947;BME280;35839;48.662;13.300;2022-08-01T05:21:01;97270.25;;;17.68;100.00
49947;BME280;35839;48.662;13.300;2022-08-01T05:23:27;97275.34;;;17.69;100.00
49947;BME280;35839;48.662;13.300;2022-08-01T05:25:52;97283.06;;;17.64;100.00
49947;BME280;35839;48.662;13.300;2022-08-01T05:28:17;97278.63;;;17.78;100.00
49947;BME280;35839;48.662;13.300;2022-08-01T05:30:43;97277.91;;;17.91;100.00
49947;BME280;35839;48.662;13.300;2022-08-01T05:33:08;97275.47;;;17.96;100.00
49947;BME280;35839;48.662;13.300;2022-08-01T05:35:33;97276.69;;;18.00;100.00
49947;BME280;35839;48.662;13.300;2022-08-01T05:37:59;97274.06;;;18.00;100.00
49947;BME280;35839;48.662;13.300;2022-08-01T05:40:24;97277.34;;;18.16;100.00
49947;BME280;35839;48.662;13.300;2022-08-01T05:42:49;97269.00;;;18.32;100.00
49947;BME280;35839;48.662;13.300;2022-08-01T05:45:15;97277.19;;;18.64;100.00
49947;BME280;35839;48.662;13.300;2022-08-01T05:47:40;97282.91;;;18.74;100.00
49947;BME280;35839;48.662;13.300;2022-08-01T05:50:06;97272.28;;;18.47;100.00
49947;BME280;35839;48.662;13.300;2022-08-01T05:52:31;97278.22;;;18.49;100.00
49947;BME280;35839;48.662;13.300;2022-08-01T05:54:57;97283.72;;;18.68;100.00
49947;BME280;35839;48.662;13.300;2022-08-01T05:57:22;97295.59;;;18.79;100.00
49947;BME280;35839;48.662;13.300;2022-08-01T05:59:47;97290.28;;;18.92;100.00
49947;BME280;35839;48.662;13.300;2022-08-01T06:02:13;97298.00;;;19.13;100.00
49947;BME280;35839;48.662;13.300;2022-08-01T06:04:38;97302.91;;;19.23;100.00
49947;BME280;35839;48.662;13.300;2022-08-01T06:07:04;97302.84;;;19.50;100.00
49947;BME280;35839;48.662;13.300;2022-08-01T06:09:29;97305.94;;;19.47;100.00
49947;BME280;35839;48.662;13.300;2022-08-01T06:11:55;97314.69;;;19.61;100.00
49947;BME280;35839;48.662;13.300;2022-08-01T06:14:21;97312.59;;;19.76;100.00
49947;BME280;35839;48.662;13.300;2022-08-01T06:16:46;97315.66;;;19.66;100.00
49947;BME280;35839;48.662;13.300;2022-08-01T06:19:12;97316.69;;;19.65;100.00
49947;BME280;35839;48.662;13.300;2022-08-01T06:21:37;97323.44;;;19.68;100.00
49947;BME280;35839;48.662;13.300;2022-08-01T06:24:03;97327.72;;;19.62;100.00
49947;BME280;35839;48.662;13.300;2022-08-01T06:26:28;97334.06;;;19.74;100.00
49947;BME280;35839;48.662;13.300;2022-08-01T06:28:54;97330.88;;;20.04;100.00
49947;BME280;35839;48.662;13.300;2022-08-01T06:31:19;97326.09;;;20.19;100.00
49947;BME280;35839;48.662;13.300;2022-08-01T06:33:44;97335.03;;;20.32;100.00
49947;BME280;35839;48.662;13.300;2022-08-01T06:36:10;97333.19;;;20.32;100.00
49947;BME280;35839;48.662;13.300;2022-08-01T06:38:35;97330.31;;;20.34;100.00
49947;BME280;35839;48.662;13.300;2022-08-01T06:41:01;97338.25;;;20.40;100.00
49947;BME280;35839;48.662;13.300;2022-08-01T06:43:27;97332.13;;;20.40;100.00
49947;BME280;35839;48.662;13.300;2022-08-01T06:45:52;97343.53;;;20.47;100.00
49947;BME280;35839;48.662;13.300;2022-08-01T06:48:18;97339.63;;;20.56;100.00
49947;BME280;35839;48.662;13.300;2022-08-01T06:50:43;97331.81;;;20.55;100.00
49947;BME280;35839;48.662;13.300;2022-08-01T06:53:08;97339.50;;;20.70;100.00
49947;BME280;35839;48.662;13.300;2022-08-01T06:55:34;97346.50;;;20.71;99.15
49947;BME280;35839;48.662;13.300;2022-08-01T06:57:59;97344.03;;;20.69;95.33
49947;BME280;35839;48.662;13.300;2022-08-01T07:00:25;97348.75;;;20.67;94.97
49947;BME280;35839;48.662;13.300;2022-08-01T07:02:53;97349.22;;;20.89;97.63
49947;BME280;35839;48.662;13.300;2022-08-01T07:05:19;97349.97;;;20.96;95.70
49947;BME280;35839;48.662;13.300;2022-08-01T07:07:45;97349.94;;;21.03;94.38
49947;BME280;35839;48.662;13.300;2022-08-01T07:10:10;97351.81;;;21.21;93.81
49947;BME280;35839;48.662;13.300;2022-08-01T07:12:36;97346.00;;;21.31;94.54
49947;BME280;35839;48.662;13.300;2022-08-01T07:15:07;97350.50;;;21.30;92.24
49947;BME280;35839;48.662;13.300;2022-08-01T07:17:36;97360.25;;;21.43;89.62
49947;BME280;35839;48.662;13.300;2022-08-01T07:20:02;97360.78;;;21.52;87.98
49947;BME280;35839;48.662;13.300;2022-08-01T07:22:27;97373.16;;;21.64;84.75
49947;BME280;35839;48.662;13.300;2022-08-01T07:24:53;97360.13;;;21.56;86.12
49947;BME280;35839;48.662;13.300;2022-08-01T07:27:18;97365.44;;;21.75;85.08
49947;BME280;35839;48.662;13.300;2022-08-01T07:29:43;97368.09;;;21.75;83.96
49947;BME280;35839;48.662;13.300;2022-08-01T07:32:09;97361.38;;;21.72;83.67
49947;BME280;35839;48.662;13.300;2022-08-01T07:34:34;97365.69;;;21.73;84.70
49947;BME280;35839;48.662;13.300;2022-08-01T07:36:59;97360.78;;;21.88;85.81
49947;BME280;35839;48.662;13.300;2022-08-01T07:39:25;97366.03;;;21.95;86.05
49947;BME280;35839;48.662;13.300;2022-08-01T07:41:50;97366.84;;;22.14;85.61
49947;BME280;35839;48.662;13.300;2022-08-01T07:44:15;97365.81;;;22.34;87.99
49947;BME280;35839;48.662;13.300;2022-08-01T07:46:41;97358.84;;;22.33;84.55
49947;BME280;35839;48.662;13.300;2022-08-01T07:49:07;97356.75;;;22.16;82.50
49947;BME280;35839;48.662;13.300;2022-08-01T07:51:32;97357.81;;;22.15;82.80
49947;BME280;35839;48.662;13.300;2022-08-01T07:53:58;97362.81;;;22.42;83.24
49947;BME280;35839;48.662;13.300;2022-08-01T07:56:23;97367.44;;;22.35;81.32
49947;BME280;35839;48.662;13.300;2022-08-01T07:58:53;97370.00;;;22.41;81.06
49947;BME280;35839;48.662;13.300;2022-08-01T08:01:18;97368.69;;;22.62;83.29
49947;BME280;35839;48.662;13.300;2022-08-01T08:03:44;97371.78;;;22.78;79.20
49947;BME280;35839;48.662;13.300;2022-08-01T08:06:10;97367.94;;;22.73;81.67
49947;BME280;35839;48.662;13.300;2022-08-01T08:08:35;97363.06;;;22.82;79.75
49947;BME280;35839;48.662;13.300;2022-08-01T08:11:01;97363.69;;;22.96;80.02
49947;BME280;35839;48.662;13.300;2022-08-01T08:13:26;97363.47;;;23.09;79.88
49947;BME280;35839;48.662;13.300;2022-08-01T08:15:52;97362.22;;;23.24;77.26
49947;BME280;35839;48.662;13.300;2022-08-01T08:18:17;97365.59;;;23.31;78.83
49947;BME280;35839;48.662;13.300;2022-08-01T08:20:43;97371.88;;;23.48;75.82
49947;BME280;35839;48.662;13.300;2022-08-01T08:23:09;97367.44;;;23.66;75.95
49947;BME280;35839;48.662;13.300;2022-08-01T08:25:53;97371.50;;;24.04;77.75
49947;BME280;35839;48.662;13.300;2022-08-01T08:28:18;97367.31;;;23.72;75.76
49947;BME280;35839;48.662;13.300;2022-08-01T08:30:44;97364.88;;;23.94;73.27
49947;BME280;35839;48.662;13.300;2022-08-01T08:33:09;97370.47;;;24.22;74.42
49947;BME280;35839;48.662;13.300;2022-08-01T08:35:34;97365.03;;;24.45;73.41
49947;BME280;35839;48.662;13.300;2022-08-01T08:38:00;97366.00;;;24.51;70.08
49947;BME280;35839;48.662;13.300;2022-08-01T08:40:29;97378.34;;;24.40;70.03
49947;BME280;35839;48.662;13.300;2022-08-01T08:42:55;97380.81;;;24.30;69.68
49947;BME280;35839;48.662;13.300;2022-08-01T08:45:22;97374.38;;;24.02;71.35
49947;BME280;35839;48.662;13.300;2022-08-01T08:47:48;97379.88;;;23.84;70.29
49947;BME280;35839;48.662;13.300;2022-08-01T08:50:15;97386.28;;;23.71;69.51
49947;BME280;35839;48.662;13.300;2022-08-01T08:52:41;97386.53;;;23.81;71.59
49947;BME280;35839;48.662;13.300;2022-08-01T08:55:08;97380.50;;;23.74;73.24
49947;BME280;35839;48.662;13.300;2022-08-01T08:57:34;97379.28;;;23.93;70.93
49947;BME280;35839;48.662;13.300;2022-08-01T09:00:00;97380.38;;;24.21;70.49
49947;BME280;35839;48.662;13.300;2022-08-01T09:02:25;97376.06;;;24.32;70.62
49947;BME280;35839;48.662;13.300;2022-08-01T09:04:51;97377.44;;;24.34;69.15
49947;BME280;35839;48.662;13.300;2022-08-01T09:07:16;97371.94;;;24.53;68.51
49947;BME280;35839;48.662;13.300;2022-08-01T09:09:42;97380.59;;;24.31;71.11
49947;BME280;35839;48.662;13.300;2022-08-01T09:12:08;97378.47;;;24.33;68.67
49947;BME280;35839;48.662;13.300;2022-08-01T09:14:44;97385.63;;;24.56;68.78
49947;BME280;35839;48.662;13.300;2022-08-01T09:17:10;97383.28;;;24.60;66.48
49947;BME280;35839;48.662;13.300;2022-08-01T09:19:44;97384.97;;;24.49;67.95
49947;BME280;35839;48.662;13.300;2022-08-01T09:22:14;97380.84;;;24.58;68.24
49947;BME280;35839;48.662;13.300;2022-08-01T09:24:57;97384.25;;;24.54;67.21
49947;BME280;35839;48.662;13.300;2022-08-01T09:27:22;97382.97;;;24.45;69.67
49947;BME280;35839;48.662;13.300;2022-08-01T09:29:51;97383.22;;;24.55;70.48
49947;BME280;35839;48.662;13.300;2022-08-01T09:32:17;97381.06;;;24.86;66.83
49947;BME280;35839;48.662;13.300;2022-08-01T09:34:43;97382.31;;;25.12;68.11
49947;BME280;35839;48.662;13.300;2022-08-01T09:37:08;97381.00;;;25.14;66.66
49947;BME280;35839;48.662;13.300;2022-08-01T09:39:35;97381.75;;;25.27;64.83
49947;BME280;35839;48.662;13.300;2022-08-01T09:42:20;97380.78;;;25.16;66.19
49947;BME280;35839;48.662;13.300;2022-08-01T09:44:46;97379.13;;;24.81;65.45
49947;BME280;35839;48.662;13.300;2022-08-01T09:47:13;97376.38;;;24.93;67.76
49947;BME280;35839;48.662;13.300;2022-08-01T09:49:40;97382.06;;;25.13;69.28
49947;BME280;35839;48.662;13.300;2022-08-01T09:52:14;97377.34;;;25.54;64.49
49947;BME280;35839;48.662;13.300;2022-08-01T09:54:40;97374.38;;;25.73;65.88
49947;BME280;35839;48.662;13.300;2022-08-01T09:57:11;97367.97;;;25.35;65.53
49947;BME280;35839;48.662;13.300;2022-08-01T09:59:39;97369.88;;;25.06;63.56
49947;BME280;35839;48.662;13.300;2022-08-01T10:02:10;97369.47;;;25.48;65.46
49947;BME280;35839;48.662;13.300;2022-08-01T10:04:45;97372.31;;;25.07;64.93
49947;BME280;35839;48.662;13.300;2022-08-01T10:07:11;97364.22;;;25.53;64.51
49947;BME280;35839;48.662;13.300;2022-08-01T10:09:36;97367.84;;;25.13;65.33
49947;BME280;35839;48.662;13.300;2022-08-01T10:12:03;97370.22;;;24.92;64.92
49947;BME280;35839;48.662;13.300;2022-08-01T10:14:30;97372.88;;;24.47;67.28
49947;BME280;35839;48.662;13.300;2022-08-01T10:16:58;97375.06;;;24.50;66.11
49947;BME280;35839;48.662;13.300;2022-08-01T10:19:25;97371.22;;;24.46;68.26
49947;BME280;35839;48.662;13.300;2022-08-01T10:21:52;97368.09;;;25.11;65.16
49947;BME280;35839;48.662;13.300;2022-08-01T10:24:20;97363.00;;;25.43;66.26
49947;BME280;35839;48.662;13.300;2022-08-01T10:26:48;97356.53;;;25.61;64.25
49947;BME280;35839;48.662;13.300;2022-08-01T10:29:16;97359.41;;;26.43;63.27
49947;BME280;35839;48.662;13.300;2022-08-01T10:31:44;97349.78;;;27.01;60.85
49947;BME280;35839;48.662;13.300;2022-08-01T10:34:11;97363.66;;;26.61;61.95
49947;BME280;35839;48.662;13.300;2022-08-01T10:36:37;97355.13;;;26.69;60.69
49947;BME280;35839;48.662;13.300;2022-08-01T10:39:05;97357.69;;;26.81;60.43
49947;BME280;35839;48.662;13.300;2022-08-01T10:41:33;97345.94;;;26.92;61.37
49947;BME280;35839;48.662;13.300;2022-08-01T10:44:00;97357.34;;;26.72;58.72
49947;BME280;35839;48.662;13.300;2022-08-01T10:46:26;97358.84;;;26.14;61.33
49947;BME280;35839;48.662;13.300;2022-08-01T10:48:58;97353.22;;;25.93;62.83
49947;BME280;35839;48.662;13.300;2022-08-01T10:51:27;97349.56;;;25.82;63.49
49947;BME280;35839;48.662;13.300;2022-08-01T10:53:54;97350.25;;;25.34;62.09
49947;BME280;35839;48.662;13.300;2022-08-01T10:56:22;97350.81;;;25.36;64.41
49947;BME280;35839;48.662;13.300;2022-08-01T10:58:48;97345.53;;;25.41;65.15
49947;BME280;35839;48.662;13.300;2022-08-01T11:03:41;97347.81;;;25.15;64.21
49947;BME280;35839;48.662;13.300;2022-08-01T11:06:06;97339.72;;;25.27;64.46
49947;BME280;35839;48.662;13.300;2022-08-01T11:08:40;97349.59;;;25.43;66.68
49947;BME280;35839;48.662;13.300;2022-08-01T11:11:07;97343.38;;;25.60;64.66
49947;BME280;35839;48.662;13.300;2022-08-01T11:16:30;97354.63;;;22.97;84.42
49947;BME280;35839;48.662;13.300;2022-08-01T11:18:56;97364.94;;;22.21;100.00
49947;BME280;35839;48.662;13.300;2022-08-01T11:21:22;97358.91;;;22.26;100.00
49947;BME280;35839;48.662;13.300;2022-08-01T11:24:07;97356.19;;;21.96;100.00
49947;BME280;35839;48.662;13.300;2022-08-01T11:26:33;97351.03;;;22.01;100.00
49947;BME280;35839;48.662;13.300;2022-08-01T11:29:16;97356.94;;;22.21;100.00
49947;BME280;35839;48.662;13.300;2022-08-01T11:31:42;97352.94;;;22.72;100.00
49947;BME280;35839;48.662;13.300;2022-08-01T11:34:07;97349.22;;;23.16;99.21
49947;BME280;35839;48.662;13.300;2022-08-01T11:36:33;97350.13;;;23.21;95.41
49947;BME280;35839;48.662;13.300;2022-08-01T11:41:31;97347.69;;;23.67;96.76
49947;BME280;35839;48.662;13.300;2022-08-01T11:43:59;97345.22;;;23.89;89.88
49947;BME280;35839;48.662;13.300;2022-08-01T11:52:16;97330.56;;;24.60;85.95
49947;BME280;35839;48.662;13.300;2022-08-01T11:54:45;97340.03;;;24.51;86.75
49947;BME280;35839;48.662;13.300;2022-08-01T11:59:48;97332.03;;;25.53;78.45
49947;BME280;35839;48.662;13.300;2022-08-01T12:02:22;97329.91;;;25.94;82.28
49947;BME280;35839;48.662;13.300;2022-08-01T12:05:09;97335.53;;;25.75;79.90
49947;BME280;35839;48.662;13.300;2022-08-01T12:07:37;97328.84;;;25.78;79.27
49947;BME280;35839;48.662;13.300;2022-08-01T12:10:04;97320.72;;;26.12;75.86
49947;BME280;35839;48.662;13.300;2022-08-01T12:12:31;97322.56;;;26.33;76.12
49947;BME280;35839;48.662;13.300;2022-08-01T12:14:59;97318.91;;;27.04;69.14
49947;BME280;35839;48.662;13.300;2022-08-01T12:17:55;97308.09;;;26.94;67.62
49947;BME280;35839;48.662;13.300;2022-08-01T12:20:22;97307.97;;;27.16;75.74
49947;BME280;35839;48.662;13.300;2022-08-01T12:22:52;97305.34;;;26.83;69.76
49947;BME280;35839;48.662;13.300;2022-08-01T12:25:17;97298.34;;;27.20;63.68
49947;BME280;35839;48.662;13.300;2022-08-01T12:27:45;97303.34;;;28.01;62.08
49947;BME280;35839;48.662;13.300;2022-08-01T12:30:18;97303.16;;;28.44;62.81
49947;BME280;35839;48.662;13.300;2022-08-01T12:32:46;97307.16;;;27.52;63.83
49947;BME280;35839;48.662;13.300;2022-08-01T12:35:20;97306.16;;;26.89;58.25
49947;BME280;35839;48.662;13.300;2022-08-01T12:37:50;97318.28;;;26.10;60.37
49947;BME280;35839;48.662;13.300;2022-08-01T12:40:27;97319.50;;;25.58;63.06
49947;BME280;35839;48.662;13.300;2022-08-01T12:42:57;97332.69;;;25.09;70.10
49947;BME280;35839;48.662;13.300;2022-08-01T12:45:29;97321.81;;;24.65;77.37
49947;BME280;35839;48.662;13.300;2022-08-01T12:47:56;97323.84;;;24.58;80.69
49947;BME280;35839;48.662;13.300;2022-08-01T12:50:29;97313.31;;;24.39;79.88
49947;BME280;35839;48.662;13.300;2022-08-01T12:52:56;97319.13;;;24.08;78.98
49947;BME280;35839;48.662;13.300;2022-08-01T12:55:23;97319.81;;;24.44;78.63
49947;BME280;35839;48.662;13.300;2022-08-01T12:58:03;97318.44;;;25.20;71.77
49947;BME280;35839;48.662;13.300;2022-08-01T13:00:29;97312.13;;;26.64;65.18
49947;BME280;35839;48.662;13.300;2022-08-01T13:03:14;97307.09;;;27.42;62.69
49947;BME280;35839;48.662;13.300;2022-08-01T13:05:54;97303.88;;;26.70;65.43
49947;BME280;35839;48.662;13.300;2022-08-01T13:08:22;97301.31;;;27.71;62.23
49947;BME280;35839;48.662;13.300;2022-08-01T13:10:48;97290.44;;;27.98;62.89
49947;BME280;35839;48.662;13.300;2022-08-01T13:13:16;97292.78;;;26.94;64.60
49947;BME280;35839;48.662;13.300;2022-08-01T13:15:43;97291.97;;;26.94;64.16
49947;BME280;35839;48.662;13.300;2022-08-01T13:18:28;97294.66;;;26.34;64.93
49947;BME280;35839;48.662;13.300;2022-08-01T13:21:21;97301.84;;;25.84;66.26
49947;BME280;35839;48.662;13.300;2022-08-01T13:24:10;97307.97;;;25.58;64.26
49947;BME280;35839;48.662;13.300;2022-08-01T13:29:13;97293.38;;;26.69;65.09
49947;BME280;35839;48.662;13.300;2022-08-01T13:31:40;97298.31;;;26.82;64.80
49947;BME280;35839;48.662;13.300;2022-08-01T13:34:06;97289.88;;;28.01;62.95
49947;BME280;35839;48.662;13.300;2022-08-01T13:36:32;97297.84;;;29.31;60.92
49947;BME280;35839;48.662;13.300;2022-08-01T13:38:58;97300.75;;;29.50;53.73
49947;BME280;35839;48.662;13.300;2022-08-01T13:41:43;97296.50;;;28.46;56.98
49947;BME280;35839;48.662;13.300;2022-08-01T13:44:09;97290.50;;;28.29;56.71
49947;BME280;35839;48.662;13.300;2022-08-01T13:46:37;97290.94;;;27.90;55.60
49947;BME280;35839;48.662;13.300;2022-08-01T13:49:04;97290.72;;;27.44;56.84
49947;BME280;35839;48.662;13.300;2022-08-01T13:51:30;97274.66;;;27.64;58.88
49947;BME280;35839;48.662;13.300;2022-08-01T13:53:55;97284.16;;;27.29;57.69
49947;BME280;35839;48.662;13.300;2022-08-01T13:56:21;97285.59;;;27.05;60.93
49947;BME280;35839;48.662;13.300;2022-08-01T13:58:46;97295.59;;;26.77;60.62
49947;BME280;35839;48.662;13.300;2022-08-01T14:01:12;97284.50;;;27.43;57.83
49947;BME280;35839;48.662;13.300;2022-08-01T14:03:38;97273.31;;;28.81;51.84
49947;BME280;35839;48.662;13.300;2022-08-01T14:06:03;97281.41;;;29.22;47.99
49947;BME280;35839;48.662;13.300;2022-08-01T14:08:29;97269.97;;;29.61;47.00
49947;BME280;35839;48.662;13.300;2022-08-01T14:10:55;97275.25;;;30.41;48.17
49947;BME280;35839;48.662;13.300;2022-08-01T14:13:26;97279.16;;;30.20;45.41
49947;BME280;35839;48.662;13.300;2022-08-01T14:15:52;97279.59;;;29.88;43.75
49947;BME280;35839;48.662;13.300;2022-08-01T14:18:18;97267.22;;;30.31;42.22
49947;BME280;35839;48.662;13.300;2022-08-01T14:20:43;97270.00;;;31.24;39.87
49947;BME280;35839;48.662;13.300;2022-08-01T14:23:09;97257.91;;;32.45;42.45
49947;BME280;35839;48.662;13.300;2022-08-01T14:25:39;97260.34;;;32.80;43.27
49947;BME280;35839;48.662;13.300;2022-08-01T14:28:06;97264.59;;;33.46;40.15
49947;BME280;35839;48.662;13.300;2022-08-01T14:30:33;97263.09;;;32.42;38.88
49947;BME280;35839;48.662;13.300;2022-08-01T14:32:59;97256.59;;;32.24;39.34
49947;BME280;35839;48.662;13.300;2022-08-01T14:35:24;97257.44;;;31.33;39.29
49947;BME280;35839;48.662;13.300;2022-08-01T14:37:50;97260.56;;;32.31;38.59
49947;BME280;35839;48.662;13.300;2022-08-01T14:40:16;97264.88;;;32.32;38.46
49947;BME280;35839;48.662;13.300;2022-08-01T14:42:41;97266.06;;;31.83;39.47
49947;BME280;35839;48.662;13.300;2022-08-01T14:45:10;97265.25;;;31.35;38.74
49947;BME280;35839;48.662;13.300;2022-08-01T14:47:39;97261.63;;;31.49;39.53
49947;BME280;35839;48.662;13.300;2022-08-01T14:50:08;97260.19;;;32.19;41.22
49947;BME280;35839;48.662;13.300;2022-08-01T14:52:35;97271.03;;;31.76;37.98
49947;BME280;35839;48.662;13.300;2022-08-01T14:55:00;97268.91;;;32.73;37.78
49947;BME280;35839;48.662;13.300;2022-08-01T14:57:26;97265.47;;;32.29;35.13
49947;BME280;35839;48.662;13.300;2022-08-01T14:59:51;97269.41;;;32.56;34.26
49947;BME280;35839;48.662;13.300;2022-08-01T15:02:17;97274.44;;;33.42;35.80
49947;BME280;35839;48.662;13.300;2022-08-01T15:04:46;97272.63;;;33.24;39.63
49947;BME280;35839;48.662;13.300;2022-08-01T15:07:11;97267.31;;;33.32;35.65
49947;BME280;35839;48.662;13.300;2022-08-01T15:09:37;97275.25;;;32.96;34.42
49947;BME280;35839;48.662;13.300;2022-08-01T15:12:03;97273.34;;;33.15;34.16
49947;BME280;35839;48.662;13.300;2022-08-01T15:14:28;97269.41;;;32.89;35.90
49947;BME280;35839;48.662;13.300;2022-08-01T15:17:13;97277.53;;;33.22;33.25
49947;BME280;35839;48.662;13.300;2022-08-01T15:19:38;97272.03;;;33.27;34.07
49947;BME280;35839;48.662;13.300;2022-08-01T15:22:04;97270.84;;;33.00;35.71
49947;BME280;35839;48.662;13.300;2022-08-01T15:24:30;97269.75;;;33.34;32.64
49947;BME280;35839;48.662;13.300;2022-08-01T15:26:55;97266.66;;;34.77;32.80
49947;BME280;35839;48.662;13.300;2022-08-01T15:29:21;97259.88;;;32.78;33.23
49947;BME280;35839;48.662;13.300;2022-08-01T15:31:46;97263.56;;;33.14;32.67
49947;BME280;35839;48.662;13.300;2022-08-01T15:34:12;97257.91;;;32.64;33.95
49947;BME280;35839;48.662;13.300;2022-08-01T15:36:37;97258.44;;;32.66;33.23
49947;BME280;35839;48.662;13.300;2022-08-01T15:39:03;97261.47;;;33.25;34.25
49947;BME280;35839;48.662;13.300;2022-08-01T15:41:28;97269.41;;;33.49;31.43
49947;BME280;35839;48.662;13.300;2022-08-01T15:43:54;97259.56;;;34.90;30.76
49947;BME280;35839;48.662;13.300;2022-08-01T15:46:19;97270.00;;;34.97;30.90
49947;BME280;35839;48.662;13.300;2022-08-01T15:48:44;97259.19;;;33.88;30.28
49947;BME280;35839;48.662;13.300;2022-08-01T15:51:10;97265.22;;;32.45;31.80
49947;BME280;35839;48.662;13.300;2022-08-01T15:53:35;97255.09;;;31.93;32.54
49947;BME280;35839;48.662;13.300;2022-08-01T15:56:00;97250.91;;;32.77;31.83
49947;BME280;35839;48.662;13.300;2022-08-01T15:58:26;97253.66;;;33.79;30.17
49947;BME280;35839;48.662;13.300;2022-08-01T16:00:52;97248.28;;;34.38;31.83
49947;BME280;35839;48.662;13.300;2022-08-01T16:03:17;97258.97;;;33.56;29.80
49947;BME280;35839;48.662;13.300;2022-08-01T16:05:43;97260.13;;;34.78;29.92
49947;BME280;35839;48.662;13.300;2022-08-01T16:08:09;97260.56;;;35.65;31.74
49947;BME280;35839;48.662;13.300;2022-08-01T16:10:34;97259.84;;;35.51;27.78
49947;BME280;35839;48.662;13.300;2022-08-01T16:12:59;97257.06;;;35.34;28.01
49947;BME280;35839;48.662;13.300;2022-08-01T16:15:25;97262.69;;;32.16;30.39
49947;BME280;35839;48.662;13.300;2022-08-01T16:17:50;97251.63;;;33.15;30.25
49947;BME280;35839;48.662;13.300;2022-08-01T16:20:15;97255.97;;;33.72;29.01
49947;BME280;35839;48.662;13.300;2022-08-01T16:22:41;97248.44;;;35.09;27.40
49947;BME280;35839;48.662;13.300;2022-08-01T16:25:06;97249.69;;;34.13;29.51
49947;BME280;35839;48.662;13.300;2022-08-01T16:27:32;97255.06;;;33.76;29.34
49947;BME280;35839;48.662;13.300;2022-08-01T16:29:58;97248.69;;;34.99;27.06
49947;BME280;35839;48.662;13.300;2022-08-01T16:32:23;97250.41;;;35.17;27.35
49947;BME280;35839;48.662;13.300;2022-08-01T16:34:48;97240.53;;;35.61;27.12
49947;BME280;35839;48.662;13.300;2022-08-01T16:37:14;97251.53;;;36.31;27.89
49947;BME280;35839;48.662;13.300;2022-08-01T16:39:39;97245.41;;;35.99;26.76
49947;BME280;35839;48.662;13.300;2022-08-01T16:42:05;97240.81;;;35.60;27.57
49947;BME280;35839;48.662;13.300;2022-08-01T16:44:31;97251.69;;;35.11;27.56
49947;BME280;35839;48.662;13.300;2022-08-01T16:46:56;97247.41;;;35.19;27.60
49947;BME280;35839;48.662;13.300;2022-08-01T16:49:21;97245.22;;;33.67;29.32
49947;BME280;35839;48.662;13.300;2022-08-01T16:51:47;97245.16;;;35.61;28.09
49947;BME280;35839;48.662;13.300;2022-08-01T16:54:12;97249.34;;;34.28;28.45
49947;BME280;35839;48.662;13.300;2022-08-01T16:56:38;97238.56;;;34.59;28.17
49947;BME280;35839;48.662;13.300;2022-08-01T16:59:03;97239.69;;;35.12;27.09
49947;BME280;35839;48.662;13.300;2022-08-01T17:01:28;97239.56;;;33.49;29.72
49947;BME280;35839;48.662;13.300;2022-08-01T17:03:54;97237.19;;;33.34;30.55
49947;BME280;35839;48.662;13.300;2022-08-01T17:06:19;97238.09;;;34.21;27.76
49947;BME280;35839;48.662;13.300;2022-08-01T17:08:45;97241.88;;;33.42;29.77
49947;BME280;35839;48.662;13.300;2022-08-01T17:11:11;97241.69;;;32.78;30.98
49947;BME280;35839;48.662;13.300;2022-08-01T17:13:36;97238.56;;;31.76;33.05
49947;BME280;35839;48.662;13.300;2022-08-01T17:16:02;97247.66;;;30.79;32.74
49947;BME280;35839;48.662;13.300;2022-08-01T17:18:29;97252.59;;;29.88;36.66
49947;BME280;35839;48.662;13.300;2022-08-01T17:20:55;97251.06;;;29.66;37.91
49947;BME280;35839;48.662;13.300;2022-08-01T17:23:20;97257.41;;;29.20;37.91
49947;BME280;35839;48.662;13.300;2022-08-01T17:25:45;97255.00;;;29.09;38.33
49947;BME280;35839;48.662;13.300;2022-08-01T17:28:11;97257.69;;;29.09;38.57
49947;BME280;35839;48.662;13.300;2022-08-01T17:30:36;97261.47;;;29.13;38.79
49947;BME280;35839;48.662;13.300;2022-08-01T17:33:03;97254.16;;;28.36;44.41
49947;BME280;35839;48.662;13.300;2022-08-01T17:35:28;97264.31;;;27.99;45.96
49947;BME280;35839;48.662;13.300;2022-08-01T17:37:54;97256.91;;;27.63;47.79
49947;BME280;35839;48.662;13.300;2022-08-01T17:40:19;97267.38;;;27.60;49.03
49947;BME280;35839;48.662;13.300;2022-08-01T17:42:44;97265.91;;;27.31;48.21
49947;BME280;35839;48.662;13.300;2022-08-01T17:45:10;97268.78;;;27.20;53.39
49947;BME280;35839;48.662;13.300;2022-08-01T17:47:37;97266.22;;;26.98;50.12
49947;BME280;35839;48.662;13.300;2022-08-01T17:50:05;97265.47;;;27.07;47.79
49947;BME280;35839;48.662;13.300;2022-08-01T17:52:31;97260.88;;;27.08;45.81
49947;BME280;35839;48.662;13.300;2022-08-01T17:54:57;97266.69;;;26.89;54.28
49947;BME280;35839;48.662;13.300;2022-08-01T17:57:23;97270.59;;;26.72;50.12
49947;BME280;35839;48.662;13.300;2022-08-01T17:59:48;97270.00;;;26.37;50.23
49947;BME280;35839;48.662;13.300;2022-08-01T18:02:15;97272.84;;;26.03;53.19
49947;BME280;35839;48.662;13.300;2022-08-01T18:04:40;97272.38;;;25.62;53.68
49947;BME280;35839;48.662;13.300;2022-08-01T18:07:05;97269.63;;;25.57;55.25